createdAt,value
2019-01-03T00:02:05.283Z,3.13
2019-01-03T00:05:03.847Z,3.87
2019-01-03T00:07:53.175Z,11.03
2019-01-03T00:10:48.599Z,4.43
2019-01-03T00:13:53.588Z,3.43
2019-01-03T00:16:42.892Z,6.10
2019-01-03T00:19:41.234Z,2.60
2019-01-03T00:22:39.424Z,6.90
2019-01-03T00:25:27.435Z,3.20
2019-01-03T00:28:18.515Z,2.80
2019-01-03T00:31:09.260Z,2.83
2019-01-03T00:34:06.147Z,3.47
2019-01-03T00:36:56.030Z,5.23
2019-01-03T00:39:44.204Z,7.10
2019-01-03T00:42:27.090Z,5.20
2019-01-03T00:45:25.680Z,2.30
2019-01-03T00:48:13.779Z,2.93
2019-01-03T00:51:01.533Z,3.10
2019-01-03T00:53:53.859Z,2.30
2019-01-03T00:56:41.836Z,5.60
2019-01-03T00:59:30.332Z,3.00
2019-01-03T01:02:17.547Z,3.23
2019-01-03T01:05:21.323Z,4.23
2019-01-03T01:08:10.615Z,5.17
2019-01-03T01:11:02.687Z,5.93
2019-01-03T01:13:57.463Z,3.33
2019-01-03T01:16:52.767Z,2.43
2019-01-03T01:19:47.651Z,1.77
2019-01-03T01:22:34.955Z,4.27
2019-01-03T01:25:24.235Z,4.47
2019-01-03T01:28:11.768Z,3.37
2019-01-03T01:31:09.690Z,3.93
2019-01-03T01:33:57.544Z,2.63
2019-01-03T01:37:05.311Z,2.10
2019-01-03T01:39:53.575Z,2.27
2019-01-03T01:42:40.585Z,3.50
2019-01-03T01:45:32.567Z,7.10
2019-01-03T01:48:22.188Z,3.70
2019-01-03T01:51:10.119Z,7.63
2019-01-03T01:54:05.220Z,3.43
2019-01-03T01:57:00.280Z,4.50
2019-01-03T01:59:48.129Z,3.40
2019-01-03T02:02:36.233Z,3.07
2019-01-03T02:05:25.791Z,1.83
2019-01-03T02:08:20.792Z,1.60
2019-01-03T02:11:10.099Z,4.63
2019-01-03T02:14:00.752Z,4.03
2019-01-03T02:17:01.000Z,2.13
2019-01-03T02:20:03.459Z,4.63
2019-01-03T02:22:52.815Z,4.20
2019-01-03T02:25:41.695Z,1.23
2019-01-03T02:28:32.065Z,2.60
2019-01-03T02:31:27.473Z,2.73
2019-01-03T02:34:15.758Z,3.03
2019-01-03T02:37:03.417Z,2.17
2019-01-03T02:40:07.789Z,2.43
2019-01-03T02:42:55.796Z,3.03
2019-01-03T02:45:57.080Z,1.50
2019-01-03T02:48:50.671Z,4.50
2019-01-03T02:51:41.201Z,2.77
2019-01-03T02:54:29.363Z,0.77
2019-01-03T02:57:33.760Z,5.23
2019-01-03T03:00:19.636Z,2.13
2019-01-03T03:03:14.780Z,5.57
2019-01-03T03:06:04.739Z,2.47
2019-01-03T03:09:06.174Z,4.60
2019-01-03T03:12:03.015Z,2.70
2019-01-03T03:14:50.789Z,2.23
2019-01-03T03:17:39.247Z,2.80
2019-01-03T03:20:29.670Z,0.80
2019-01-03T03:23:26.904Z,1.73
2019-01-03T03:26:28.249Z,2.93
2019-01-03T03:29:29.036Z,6.47
2019-01-03T03:32:17.168Z,6.53
2019-01-03T03:35:16.145Z,3.50
2019-01-03T03:38:04.126Z,4.70
2019-01-03T03:40:52.311Z,1.83
2019-01-03T03:43:41.048Z,4.50
2019-01-03T03:46:29.025Z,6.73
2019-01-03T03:49:16.909Z,4.00
2019-01-03T03:52:11.764Z,2.47
2019-01-03T03:55:00.229Z,6.13
2019-01-03T03:57:48.278Z,6.00
2019-01-03T04:00:40.842Z,1.70
2019-01-03T04:03:28.899Z,3.47
2019-01-03T04:06:27.321Z,4.10
2019-01-03T04:09:28.655Z,2.10
2019-01-03T04:12:24.129Z,2.73
2019-01-03T04:15:16.411Z,3.77
2019-01-03T04:18:04.799Z,3.27
2019-01-03T04:21:00.197Z,5.27
2019-01-03T04:24:01.975Z,2.50
2019-01-03T04:26:44.808Z,2.57
2019-01-03T04:29:37.796Z,3.30
2019-01-03T04:32:25.835Z,4.10
2019-01-03T04:35:29.847Z,4.83
2019-01-03T04:38:15.525Z,1.63
2019-01-03T04:41:10.075Z,6.70
2019-01-03T04:44:02.482Z,3.87
2019-01-03T04:47:00.616Z,1.07
2019-01-03T04:49:50.122Z,4.97
2019-01-03T04:52:42.295Z,1.53
2019-01-03T04:55:49.987Z,2.40
2019-01-03T04:58:38.015Z,5.07
2019-01-03T05:02:16.086Z,6.13
2019-01-03T05:04:56.595Z,3.97
2019-01-03T05:07:57.436Z,7.63
2019-01-03T05:11:02.512Z,4.17
2019-01-03T05:13:52.792Z,2.90
2019-01-03T05:16:54.445Z,3.37
2019-01-03T05:19:43.798Z,2.33
2019-01-03T05:22:51.544Z,4.23
2019-01-03T05:25:44.541Z,2.70
2019-01-03T05:28:44.687Z,7.77
2019-01-03T05:31:32.640Z,5.20
2019-01-03T05:34:22.387Z,4.73
2019-01-03T05:37:15.481Z,6.93
2019-01-03T05:40:10.816Z,4.37
2019-01-03T05:43:09.347Z,3.93
2019-01-03T05:46:07.260Z,6.07
2019-01-03T05:49:00.214Z,3.67
2019-01-03T05:51:48.372Z,6.80
2019-01-03T05:54:43.692Z,7.13
2019-01-03T05:57:36.132Z,3.17
2019-01-03T06:00:24.620Z,3.57
2019-01-03T06:03:24.656Z,6.70
2019-01-03T06:06:31.921Z,8.20
2019-01-03T06:09:27.360Z,3.33
2019-01-03T06:12:28.832Z,4.43
2019-01-03T06:15:36.374Z,5.63
2019-01-03T06:18:23.972Z,3.03
2019-01-03T06:21:22.408Z,3.87
2019-01-03T06:24:14.246Z,3.20
2019-01-03T06:27:02.273Z,4.03
2019-01-03T06:29:53.099Z,6.83
2019-01-03T06:32:53.095Z,37.33
2019-01-03T06:35:52.034Z,5.77
2019-01-03T06:38:42.444Z,3.73
2019-01-03T06:41:40.488Z,7.30
2019-01-03T06:44:30.104Z,6.00
2019-01-03T06:47:18.863Z,3.80
2019-01-03T06:50:13.843Z,4.83
2019-01-03T06:53:02.104Z,3.63
2019-01-03T06:55:57.304Z,5.70
2019-01-03T06:58:49.589Z,4.07
2019-01-03T07:01:41.673Z,6.73
2019-01-03T07:04:29.375Z,6.27
2019-01-03T07:07:21.738Z,5.53
2019-01-03T07:10:08.779Z,5.17
2019-01-03T07:13:03.539Z,7.83
2019-01-03T07:15:52.795Z,7.93
2019-01-03T07:18:42.347Z,9.40
2019-01-03T07:21:46.878Z,6.93
2019-01-03T07:24:48.449Z,9.70
2019-01-03T07:27:37.857Z,7.30
2019-01-03T07:30:39.269Z,8.87
2019-01-03T07:33:35.768Z,8.83
2019-01-03T07:36:37.643Z,6.27
2019-01-03T07:39:28.045Z,6.13
2019-01-03T07:42:20.004Z,4.60
2019-01-03T07:44:58.844Z,5.37
2019-01-03T07:48:00.294Z,11.70
2019-01-03T07:50:52.044Z,7.57
2019-01-03T07:53:55.902Z,7.47
2019-01-03T07:57:04.232Z,7.80
2019-01-03T07:59:54.890Z,9.50
2019-01-03T08:02:49.684Z,9.87
2019-01-03T08:08:35.483Z,10.23
2019-01-03T08:11:27.174Z,9.27
2019-01-03T08:14:34.074Z,14.57
2019-01-03T08:17:30.304Z,10.90
2019-01-03T08:20:18.853Z,12.80
2019-01-03T08:23:08.415Z,12.67
2019-01-03T08:26:11.232Z,13.50
2019-01-03T08:28:58.956Z,10.53
2019-01-03T08:31:47.007Z,9.63
2019-01-03T08:34:32.996Z,10.37
2019-01-03T08:37:22.368Z,11.13
2019-01-03T08:40:14.900Z,11.80
2019-01-03T08:43:02.627Z,10.30
2019-01-03T08:45:55.599Z,9.00
2019-01-03T08:49:00.378Z,9.73
2019-01-03T08:51:54.936Z,8.93
2019-01-03T08:55:01.666Z,10.83
2019-01-03T08:58:09.100Z,9.13
2019-01-03T09:01:07.450Z,8.40
2019-01-03T09:03:56.320Z,6.73
2019-01-03T09:06:48.964Z,5.93
2019-01-03T09:09:50.262Z,10.47
2019-01-03T09:12:41.769Z,7.60
2019-01-03T09:15:33.892Z,10.77
2019-01-03T09:18:31.429Z,10.87
2019-01-03T09:21:37.033Z,9.07
2019-01-03T09:24:32.923Z,6.50
2019-01-03T09:27:24.136Z,6.90
2019-01-03T09:30:27.273Z,14.67
2019-01-03T09:33:28.217Z,6.33
2019-01-03T09:36:16.256Z,5.87
2019-01-03T09:39:09.218Z,3.90
2019-01-03T09:41:58.683Z,6.00
2019-01-03T09:44:46.285Z,7.70
2019-01-03T09:51:17.239Z,5.47
2019-01-03T09:53:47.620Z,5.20
2019-01-03T09:56:18.049Z,4.60
2019-01-03T09:58:48.404Z,4.70
2019-01-03T10:01:18.780Z,4.83
2019-01-03T10:03:49.171Z,5.13
2019-01-03T10:06:19.651Z,5.50
2019-01-03T10:08:49.995Z,3.03
2019-01-03T10:11:20.759Z,4.47
2019-01-03T10:13:51.552Z,5.43
2019-01-03T10:16:21.987Z,2.97
2019-01-03T10:18:52.404Z,6.10
2019-01-03T10:21:22.827Z,8.60
2019-01-03T10:23:54.291Z,7.77
2019-01-03T10:26:24.640Z,3.67
2019-01-03T10:28:55.024Z,4.93
2019-01-03T10:31:25.407Z,3.57
2019-01-03T10:33:56.116Z,2.80
2019-01-03T10:36:27.466Z,5.50
2019-01-03T10:38:58.119Z,3.87
2019-01-03T10:41:28.784Z,3.70
2019-01-03T10:43:59.208Z,3.37
2019-01-03T10:46:29.572Z,6.93
2019-01-03T10:49:00.040Z,2.53
2019-01-03T10:51:30.396Z,4.80
2019-01-03T10:54:00.785Z,3.80
2019-01-03T10:56:31.159Z,3.07
2019-01-03T10:59:01.634Z,3.83
2019-01-03T11:02:15.851Z,4.17
2019-01-03T11:05:49.072Z,3.97
2019-01-03T11:08:21.970Z,3.87
2019-01-03T11:10:52.436Z,3.17
2019-01-03T11:13:57.825Z,4.43
2019-01-03T11:16:30.944Z,7.93
2019-01-03T11:19:01.784Z,4.70
2019-01-03T11:21:32.282Z,3.30
2019-01-03T11:24:04.724Z,3.43
2019-01-03T11:26:35.209Z,3.23
2019-01-03T11:29:07.654Z,3.50
2019-01-03T11:31:40.600Z,4.33
2019-01-03T11:34:12.545Z,1.90
2019-01-03T11:36:43.552Z,1.67
2019-01-03T11:39:16.240Z,4.17
2019-01-03T11:41:47.989Z,1.07
2019-01-03T11:44:19.847Z,4.07
2019-01-03T11:46:50.282Z,3.23
2019-01-03T11:49:20.780Z,4.63
2019-01-03T11:51:51.767Z,3.83
2019-01-03T11:54:25.842Z,3.33
2019-01-03T11:57:00.556Z,5.23
2019-01-03T11:59:34.104Z,3.73
2019-01-03T12:02:05.508Z,5.47
2019-01-03T12:04:38.730Z,2.67
2019-01-03T12:07:11.709Z,5.53
2019-01-03T12:09:43.049Z,4.50
2019-01-03T12:12:18.209Z,4.57
2019-01-03T12:14:49.212Z,3.80
2019-01-03T12:17:21.451Z,3.00
2019-01-03T12:19:52.900Z,3.63
2019-01-03T12:22:24.358Z,4.60
2019-01-03T12:24:55.442Z,5.33
2019-01-03T12:27:26.817Z,6.17
2019-01-03T12:29:59.088Z,7.33
2019-01-03T12:32:29.683Z,4.13
2019-01-03T12:34:59.808Z,6.30
2019-01-03T12:37:32.866Z,3.03
2019-01-03T12:40:09.437Z,4.50
2019-01-03T12:42:40.943Z,3.40
2019-01-03T12:45:13.541Z,7.43
2019-01-03T12:47:45.125Z,5.87
2019-01-03T12:50:16.220Z,4.00
2019-01-03T12:52:48.809Z,1.60
2019-01-03T12:55:22.321Z,3.07
2019-01-03T12:57:59.394Z,3.00
2019-01-03T13:00:31.753Z,2.53
2019-01-03T13:03:03.960Z,2.77
2019-01-03T13:05:56.008Z,2.13
2019-01-03T13:08:27.834Z,3.20
2019-01-03T13:11:07.917Z,3.93
2019-01-03T13:13:44.387Z,2.73
2019-01-03T13:16:14.918Z,3.53
2019-01-03T13:18:46.309Z,3.63
2019-01-03T13:21:23.398Z,2.40
2019-01-03T13:23:55.007Z,2.53
2019-01-03T13:26:28.641Z,4.13
2019-01-03T13:28:59.214Z,5.03
2019-01-03T13:31:30.192Z,1.90
2019-01-03T13:34:09.892Z,2.80
2019-01-03T13:36:43.925Z,2.97
2019-01-03T13:39:23.395Z,5.13
2019-01-03T13:42:11.860Z,1.93
2019-01-03T13:44:48.253Z,4.83
2019-01-03T13:47:20.687Z,2.63
2019-01-03T13:50:02.016Z,3.77
2019-01-03T13:52:33.205Z,2.57
2019-01-03T13:55:12.258Z,3.80
2019-01-03T13:57:43.280Z,2.40
2019-01-03T14:00:15.116Z,4.77
2019-01-03T14:02:46.500Z,5.97
2019-01-03T14:05:18.332Z,3.77
2019-01-03T14:07:48.804Z,3.47
2019-01-03T14:10:20.453Z,3.03
2019-01-03T14:12:54.271Z,7.70
2019-01-03T14:15:27.552Z,2.77
2019-01-03T14:17:59.505Z,4.07
2019-01-03T14:20:34.337Z,9.27
2019-01-03T14:23:17.669Z,3.60
2019-01-03T14:25:53.941Z,4.97
2019-01-03T14:28:28.326Z,6.73
2019-01-03T14:31:06.071Z,3.63
2019-01-03T14:33:58.091Z,3.23
2019-01-03T14:36:33.404Z,7.60
2019-01-03T14:39:08.553Z,2.83
2019-01-03T14:41:47.357Z,2.67
2019-01-03T14:44:20.493Z,7.03
2019-01-03T14:47:01.876Z,4.80
2019-01-03T14:49:46.876Z,6.40
2019-01-03T14:52:20.581Z,5.10
2019-01-03T14:54:50.999Z,4.47
2019-01-03T14:57:32.771Z,5.30
2019-01-03T15:00:09.079Z,11.63
2019-01-03T15:02:47.506Z,11.73
2019-01-03T15:05:22.760Z,8.80
2019-01-03T15:08:06.146Z,5.83
2019-01-03T15:10:41.807Z,9.23
2019-01-03T15:13:23.004Z,13.80
2019-01-03T15:15:54.305Z,8.77
2019-01-03T15:18:30.239Z,9.73
2019-01-03T15:21:03.720Z,7.00
2019-01-03T15:23:36.732Z,7.67
2019-01-03T15:26:10.090Z,7.00
2019-01-03T15:28:44.638Z,9.03
2019-01-03T15:31:36.060Z,5.67
2019-01-03T15:34:23.475Z,8.90
2019-01-03T15:36:56.348Z,9.83
2019-01-03T15:39:27.879Z,9.60
2019-01-03T15:41:58.325Z,9.80
2019-01-03T15:44:37.209Z,7.03
2019-01-03T15:47:08.859Z,10.97
2019-01-03T15:49:43.828Z,9.60
2019-01-03T15:52:17.781Z,13.70
2019-01-03T15:54:48.256Z,14.40
2019-01-03T15:57:19.559Z,24.47
2019-01-03T15:59:49.868Z,21.80
2019-01-03T16:02:22.280Z,28.70
2019-01-03T16:04:59.444Z,20.57
2019-01-03T16:07:34.721Z,25.03
2019-01-03T16:10:08.703Z,24.63
2019-01-03T16:12:39.563Z,19.03
2019-01-03T16:15:09.956Z,13.67
2019-01-03T16:17:39.703Z,15.03
2019-01-03T16:20:10.092Z,10.13
2019-01-03T16:22:45.061Z,11.73
2019-01-03T16:25:19.462Z,16.60
2019-01-03T16:27:50.125Z,14.57
2019-01-03T16:30:25.671Z,14.73
2019-01-03T16:32:58.107Z,15.90
2019-01-03T16:35:29.214Z,18.17
2019-01-03T16:38:00.131Z,31.87
2019-01-03T16:40:30.895Z,16.00
2019-01-03T16:43:01.267Z,26.50
2019-01-03T16:45:31.095Z,22.70
2019-01-03T16:48:01.395Z,22.83
2019-01-03T16:50:32.965Z,19.97
2019-01-03T16:53:03.405Z,19.43
2019-01-03T16:55:36.419Z,18.83
2019-01-03T16:58:14.491Z,25.23
2019-01-03T17:00:46.620Z,17.47
2019-01-03T17:03:17.384Z,19.63
2019-01-03T17:05:47.856Z,19.90
2019-01-03T17:08:18.216Z,20.53
2019-01-03T17:10:50.503Z,21.17
2019-01-03T17:13:20.987Z,19.77
2019-01-03T17:15:51.459Z,20.13
2019-01-03T17:18:21.847Z,22.10
2019-01-03T17:20:52.281Z,15.00
2019-01-03T17:23:22.759Z,19.27
2019-01-03T17:25:53.202Z,28.37
2019-01-03T17:28:24.408Z,27.53
2019-01-03T17:30:55.015Z,24.83
2019-01-03T17:33:25.512Z,18.57
2019-01-03T17:35:55.935Z,16.43
2019-01-03T17:38:29.673Z,23.70
2019-01-03T17:41:00.155Z,25.57
2019-01-03T17:43:30.791Z,30.03
2019-01-03T17:46:02.488Z,39.87
2019-01-03T17:48:32.912Z,41.67
2019-01-03T17:51:03.347Z,40.87
2019-01-03T17:53:33.843Z,39.73
2019-01-03T17:56:04.558Z,41.27
2019-01-03T17:58:35.099Z,42.23
2019-01-03T18:01:05.607Z,43.77
2019-01-03T18:03:36.235Z,40.50
2019-01-03T18:06:06.398Z,33.53
2019-01-03T18:08:36.735Z,40.80
2019-01-03T18:11:08.569Z,46.23
2019-01-03T18:13:47.044Z,39.10
2019-01-03T18:16:17.484Z,39.23
2019-01-03T18:18:58.351Z,31.47
2019-01-03T18:21:35.097Z,31.00
2019-01-03T18:24:05.603Z,24.73
2019-01-03T18:26:36.279Z,30.37
2019-01-03T18:29:06.735Z,23.57
2019-01-03T18:31:38.231Z,24.10
2019-01-03T18:34:08.699Z,23.40
2019-01-03T18:36:39.192Z,32.57
2019-01-03T18:39:09.936Z,29.67
2019-01-03T18:41:40.700Z,26.77
2019-01-03T18:44:11.631Z,32.73
2019-01-03T18:46:41.987Z,31.27
2019-01-03T18:49:15.301Z,27.07
2019-01-03T18:51:45.792Z,21.20
2019-01-03T18:54:16.247Z,19.47
2019-01-03T18:56:46.980Z,25.17
2019-01-03T18:59:17.432Z,21.93
2019-01-03T19:01:49.296Z,20.37
2019-01-03T19:04:19.071Z,23.80
2019-01-03T19:06:49.407Z,20.30
2019-01-03T19:15:19.241Z,22.43
2019-01-03T19:18:34.750Z,21.93
2019-01-03T19:21:15.162Z,29.00
2019-01-03T19:26:59.179Z,22.00
2019-01-03T19:29:30.558Z,22.13
2019-01-03T19:32:01.085Z,23.27
2019-01-03T19:34:51.161Z,25.23
2019-01-03T19:37:21.571Z,20.70
2019-01-03T19:39:52.755Z,17.80
2019-01-03T19:42:22.497Z,20.33
2019-01-03T19:44:52.859Z,20.30
2019-01-03T19:47:23.348Z,16.90
2019-01-03T19:49:53.783Z,18.40
2019-01-03T19:52:56.752Z,16.67
2019-01-03T20:05:43.616Z,16.43
2019-01-03T20:19:15.697Z,15.43
2019-01-03T20:25:34.860Z,20.40
2019-01-03T20:28:07.367Z,17.53
2019-01-03T20:30:38.351Z,14.73
2019-01-03T20:33:15.859Z,10.77
2019-01-03T20:35:46.536Z,9.67
2019-01-03T20:38:18.614Z,13.80
2019-01-03T20:40:48.559Z,11.33
2019-01-03T20:43:18.195Z,17.27
2019-01-03T20:45:48.519Z,13.97
2019-01-03T20:48:19.212Z,13.37
2019-01-03T20:50:53.216Z,16.73
2019-01-03T20:54:20.061Z,13.10
2019-01-03T20:56:50.527Z,15.03
2019-01-03T20:59:20.911Z,14.07
2019-01-03T21:01:52.917Z,15.00
2019-01-03T21:04:23.399Z,14.73
2019-01-03T21:06:53.740Z,13.33
2019-01-03T21:09:23.451Z,14.17
2019-01-03T21:11:53.715Z,16.73
2019-01-03T21:14:25.429Z,13.97
2019-01-03T21:16:56.190Z,13.23
2019-01-03T21:19:27.851Z,17.50
2019-01-03T21:21:58.264Z,18.67
2019-01-03T21:24:28.642Z,13.53
2019-01-03T21:26:59.084Z,15.53
2019-01-03T21:29:29.488Z,14.70
2019-01-03T21:31:59.219Z,12.27
2019-01-03T21:34:29.508Z,13.40
2019-01-03T21:36:59.201Z,13.03
2019-01-03T21:39:46.524Z,14.90
2019-01-03T21:42:16.995Z,19.67
2019-01-03T21:44:47.463Z,18.67
2019-01-03T21:47:17.243Z,18.17
2019-01-03T21:49:47.512Z,17.07
2019-01-03T21:52:17.896Z,15.53
2019-01-03T21:54:48.341Z,17.10
2019-01-03T21:57:18.820Z,12.83
2019-01-03T21:59:49.173Z,20.37
2019-01-03T22:02:19.551Z,15.20
2019-01-03T22:04:52.674Z,19.67
2019-01-03T22:07:23.227Z,20.87
2019-01-03T22:09:53.579Z,17.50
2019-01-03T22:12:23.322Z,18.50
2019-01-03T22:14:53.579Z,19.43
2019-01-03T22:17:23.963Z,18.27
2019-01-03T22:19:54.311Z,12.80
2019-01-03T22:22:24.701Z,14.97
2019-01-03T22:24:57.123Z,15.03
2019-01-03T22:27:31.202Z,13.93
2019-01-03T22:30:05.003Z,16.90
2019-01-03T22:36:12.448Z,19.97
2019-01-03T22:38:47.932Z,16.60
2019-01-03T22:41:34.113Z,14.50
2019-01-03T22:47:31.493Z,18.97
2019-01-03T22:50:13.557Z,15.70
2019-01-03T22:52:49.768Z,13.27
2019-01-03T22:55:17.093Z,18.50
2019-01-03T22:57:47.977Z,15.97
2019-01-03T23:01:11.326Z,19.20
2019-01-03T23:03:51.795Z,16.73
2019-01-03T23:06:22.716Z,24.20
2019-01-03T23:08:53.620Z,14.10
2019-01-03T23:11:24.926Z,14.47
2019-01-03T23:13:55.363Z,14.57
2019-01-03T23:16:29.281Z,16.17
2019-01-03T23:19:05.816Z,12.50
2019-01-03T23:21:39.489Z,18.40
2019-01-03T23:24:21.960Z,12.93
2019-01-03T23:26:59.376Z,15.83
2019-01-03T23:29:29.769Z,12.87
2019-01-03T23:32:22.304Z,14.23
2019-01-03T23:34:52.751Z,14.63
2019-01-03T23:37:24.168Z,13.90
2019-01-03T23:39:55.027Z,14.70
2019-01-03T23:42:25.880Z,17.33
2019-01-03T23:45:24.693Z,15.63
2019-01-03T23:47:59.660Z,15.27
2019-01-03T23:50:32.691Z,11.13
2019-01-03T23:53:03.148Z,12.50
2019-01-03T23:55:44.571Z,11.50
2019-01-03T23:58:14.925Z,14.63
